sensor_id;sensor_type;location;lat;lon;timestamp;P1;durP1;ratioP1;P2;durP2;ratioP2
9420;SDS011;4749;51.398;5.466;2023-04-16T00:00:25;5.67;;;2.47;;
9420;SDS011;4749;51.398;5.466;2023-04-16T00:02:53;7.57;;;2.50;;
9420;SDS011;4749;51.398;5.466;2023-04-16T00:05:21;5.27;;;2.60;;
9420;SDS011;4749;51.398;5.466;2023-04-16T00:07:48;5.27;;;2.03;;
9420;SDS011;4749;51.398;5.466;2023-04-16T00:10:16;6.20;;;2.23;;
9420;SDS011;4749;51.398;5.466;2023-04-16T00:12:44;13.47;;;3.00;;
9420;SDS011;4749;51.398;5.466;2023-04-16T00:15:11;6.40;;;2.33;;
9420;SDS011;4749;51.398;5.466;2023-04-16T00:17:38;7.87;;;2.80;;
9420;SDS011;4749;51.398;5.466;2023-04-16T00:20:05;6.80;;;2.60;;
9420;SDS011;4749;51.398;5.466;2023-04-16T00:22:34;8.33;;;2.17;;
9420;SDS011;4749;51.398;5.466;2023-04-16T00:25:01;6.03;;;2.30;;
9420;SDS011;4749;51.398;5.466;2023-04-16T00:27:29;7.23;;;2.33;;
9420;SDS011;4749;51.398;5.466;2023-04-16T00:29:56;4.70;;;2.23;;
9420;SDS011;4749;51.398;5.466;2023-04-16T00:32:23;8.13;;;2.13;;
9420;SDS011;4749;51.398;5.466;2023-04-16T00:34:50;6.13;;;2.50;;
9420;SDS011;4749;51.398;5.466;2023-04-16T00:37:17;6.80;;;2.57;;
9420;SDS011;4749;51.398;5.466;2023-04-16T00:39:44;7.43;;;2.53;;
9420;SDS011;4749;51.398;5.466;2023-04-16T00:42:12;5.37;;;2.50;;
9420;SDS011;4749;51.398;5.466;2023-04-16T00:44:39;3.53;;;2.10;;
9420;SDS011;4749;51.398;5.466;2023-04-16T00:47:06;11.27;;;2.70;;
9420;SDS011;4749;51.398;5.466;2023-04-16T00:49:34;7.87;;;2.70;;
9420;SDS011;4749;51.398;5.466;2023-04-16T00:52:01;10.17;;;2.90;;
9420;SDS011;4749;51.398;5.466;2023-04-16T00:54:29;7.90;;;2.70;;
9420;SDS011;4749;51.398;5.466;2023-04-16T00:56:57;6.37;;;2.43;;
9420;SDS011;4749;51.398;5.466;2023-04-16T00:59:25;5.60;;;2.67;;
9420;SDS011;4749;51.398;5.466;2023-04-16T01:01:53;8.13;;;2.90;;
9420;SDS011;4749;51.398;5.466;2023-04-16T01:04:20;6.63;;;3.13;;
9420;SDS011;4749;51.398;5.466;2023-04-16T01:06:47;10.80;;;3.33;;
9420;SDS011;4749;51.398;5.466;2023-04-16T01:09:15;8.23;;;2.85;;
9420;SDS011;4749;51.398;5.466;2023-04-16T01:11:42;7.93;;;3.13;;
9420;SDS011;4749;51.398;5.466;2023-04-16T01:14:09;9.90;;;3.93;;
9420;SDS011;4749;51.398;5.466;2023-04-16T01:16:37;9.90;;;3.80;;
9420;SDS011;4749;51.398;5.466;2023-04-16T01:19:04;5.57;;;3.30;;
9420;SDS011;4749;51.398;5.466;2023-04-16T01:21:31;6.47;;;3.40;;
9420;SDS011;4749;51.398;5.466;2023-04-16T01:24:01;7.43;;;3.23;;
9420;SDS011;4749;51.398;5.466;2023-04-16T01:26:30;7.97;;;3.70;;
9420;SDS011;4749;51.398;5.466;2023-04-16T01:28:57;11.07;;;3.57;;
9420;SDS011;4749;51.398;5.466;2023-04-16T01:31:25;7.63;;;3.23;;
9420;SDS011;4749;51.398;5.466;2023-04-16T01:33:52;10.03;;;3.90;;
9420;SDS011;4749;51.398;5.466;2023-04-16T01:36:19;8.13;;;3.60;;
9420;SDS011;4749;51.398;5.466;2023-04-16T01:38:47;8.93;;;3.70;;
9420;SDS011;4749;51.398;5.466;2023-04-16T01:41:14;10.00;;;4.27;;
9420;SDS011;4749;51.398;5.466;2023-04-16T01:43:41;7.70;;;4.03;;
9420;SDS011;4749;51.398;5.466;2023-04-16T01:46:26;9.27;;;3.90;;
9420;SDS011;4749;51.398;5.466;2023-04-16T01:48:56;13.90;;;3.97;;
9420;SDS011;4749;51.398;5.466;2023-04-16T01:51:23;11.13;;;3.77;;
9420;SDS011;4749;51.398;5.466;2023-04-16T01:53:51;8.80;;;4.20;;
9420;SDS011;4749;51.398;5.466;2023-04-16T01:56:18;11.37;;;4.40;;
9420;SDS011;4749;51.398;5.466;2023-04-16T01:58:45;11.00;;;4.60;;
9420;SDS011;4749;51.398;5.466;2023-04-16T02:01:12;11.00;;;4.63;;
9420;SDS011;4749;51.398;5.466;2023-04-16T02:03:40;9.47;;;4.10;;
9420;SDS011;4749;51.398;5.466;2023-04-16T02:06:07;10.47;;;4.33;;
9420;SDS011;4749;51.398;5.466;2023-04-16T02:08:35;11.67;;;4.20;;
9420;SDS011;4749;51.398;5.466;2023-04-16T02:11:03;8.97;;;4.77;;
9420;SDS011;4749;51.398;5.466;2023-04-16T02:13:30;7.10;;;4.90;;
9420;SDS011;4749;51.398;5.466;2023-04-16T02:15:57;10.90;;;5.13;;
9420;SDS011;4749;51.398;5.466;2023-04-16T02:18:24;9.77;;;5.33;;
9420;SDS011;4749;51.398;5.466;2023-04-16T02:20:51;6.70;;;4.47;;
9420;SDS011;4749;51.398;5.466;2023-04-16T02:23:18;12.37;;;5.30;;
9420;SDS011;4749;51.398;5.466;2023-04-16T02:25:46;9.70;;;5.17;;
9420;SDS011;4749;51.398;5.466;2023-04-16T02:28:14;14.40;;;5.50;;
9420;SDS011;4749;51.398;5.466;2023-04-16T02:30:42;8.73;;;5.07;;
9420;SDS011;4749;51.398;5.466;2023-04-16T02:33:10;14.67;;;5.73;;
9420;SDS011;4749;51.398;5.466;2023-04-16T02:35:38;8.17;;;5.77;;
9420;SDS011;4749;51.398;5.466;2023-04-16T02:38:06;12.80;;;6.17;;
9420;SDS011;4749;51.398;5.466;2023-04-16T02:40:34;9.23;;;5.80;;
9420;SDS011;4749;51.398;5.466;2023-04-16T02:43:01;10.50;;;5.77;;
9420;SDS011;4749;51.398;5.466;2023-04-16T02:45:28;13.33;;;6.20;;
9420;SDS011;4749;51.398;5.466;2023-04-16T02:47:56;13.67;;;7.03;;
9420;SDS011;4749;51.398;5.466;2023-04-16T02:50:24;12.57;;;5.50;;
9420;SDS011;4749;51.398;5.466;2023-04-16T02:52:51;6.37;;;5.23;;
9420;SDS011;4749;51.398;5.466;2023-04-16T02:55:19;11.13;;;5.63;;
9420;SDS011;4749;51.398;5.466;2023-04-16T02:57:46;9.87;;;5.77;;
9420;SDS011;4749;51.398;5.466;2023-04-16T03:00:13;10.97;;;6.50;;
9420;SDS011;4749;51.398;5.466;2023-04-16T03:02:40;8.77;;;5.80;;
9420;SDS011;4749;51.398;5.466;2023-04-16T03:05:08;9.97;;;5.80;;
9420;SDS011;4749;51.398;5.466;2023-04-16T03:07:35;10.53;;;5.80;;
9420;SDS011;4749;51.398;5.466;2023-04-16T03:10:04;10.20;;;5.60;;
9420;SDS011;4749;51.398;5.466;2023-04-16T03:12:34;11.13;;;6.00;;
9420;SDS011;4749;51.398;5.466;2023-04-16T03:15:01;9.60;;;5.57;;
9420;SDS011;4749;51.398;5.466;2023-04-16T03:17:29;12.68;;;5.57;;
9420;SDS011;4749;51.398;5.466;2023-04-16T03:19:56;12.97;;;6.03;;
9420;SDS011;4749;51.398;5.466;2023-04-16T03:22:23;9.10;;;5.60;;
9420;SDS011;4749;51.398;5.466;2023-04-16T03:24:50;10.70;;;5.70;;
9420;SDS011;4749;51.398;5.466;2023-04-16T03:27:17;13.30;;;6.10;;
9420;SDS011;4749;51.398;5.466;2023-04-16T03:29:44;8.45;;;5.63;;
9420;SDS011;4749;51.398;5.466;2023-04-16T03:32:11;10.57;;;6.03;;
9420;SDS011;4749;51.398;5.466;2023-04-16T03:34:38;12.13;;;6.57;;
9420;SDS011;4749;51.398;5.466;2023-04-16T03:37:06;10.83;;;6.53;;
9420;SDS011;4749;51.398;5.466;2023-04-16T03:39:37;12.63;;;7.23;;
9420;SDS011;4749;51.398;5.466;2023-04-16T03:42:04;14.93;;;6.03;;
9420;SDS011;4749;51.398;5.466;2023-04-16T03:44:31;11.83;;;6.70;;
9420;SDS011;4749;51.398;5.466;2023-04-16T03:46:59;11.33;;;6.77;;
9420;SDS011;4749;51.398;5.466;2023-04-16T03:49:26;17.47;;;7.43;;
9420;SDS011;4749;51.398;5.466;2023-04-16T03:51:53;14.97;;;7.57;;
9420;SDS011;4749;51.398;5.466;2023-04-16T03:54:20;13.80;;;8.77;;
9420;SDS011;4749;51.398;5.466;2023-04-16T03:56:48;13.43;;;8.10;;
9420;SDS011;4749;51.398;5.466;2023-04-16T03:59:15;14.67;;;8.30;;
9420;SDS011;4749;51.398;5.466;2023-04-16T04:01:43;14.47;;;8.50;;
9420;SDS011;4749;51.398;5.466;2023-04-16T04:04:10;14.93;;;8.50;;
9420;SDS011;4749;51.398;5.466;2023-04-16T04:06:38;12.18;;;8.52;;
9420;SDS011;4749;51.398;5.466;2023-04-16T04:09:05;14.98;;;8.98;;
9420;SDS011;4749;51.398;5.466;2023-04-16T04:11:32;14.90;;;8.63;;
9420;SDS011;4749;51.398;5.466;2023-04-16T04:14:00;17.73;;;8.70;;
9420;SDS011;4749;51.398;5.466;2023-04-16T04:16:27;17.63;;;9.10;;
9420;SDS011;4749;51.398;5.466;2023-04-16T04:18:54;15.13;;;9.57;;
9420;SDS011;4749;51.398;5.466;2023-04-16T04:21:21;15.07;;;9.20;;
9420;SDS011;4749;51.398;5.466;2023-04-16T04:23:49;20.25;;;10.88;;
9420;SDS011;4749;51.398;5.466;2023-04-16T04:26:16;14.37;;;9.60;;
9420;SDS011;4749;51.398;5.466;2023-04-16T04:28:43;15.73;;;10.33;;
9420;SDS011;4749;51.398;5.466;2023-04-16T04:31:10;15.57;;;10.55;;
9420;SDS011;4749;51.398;5.466;2023-04-16T04:33:38;16.10;;;10.57;;
9420;SDS011;4749;51.398;5.466;2023-04-16T04:36:06;16.77;;;10.02;;
9420;SDS011;4749;51.398;5.466;2023-04-16T04:38:33;19.17;;;11.03;;
9420;SDS011;4749;51.398;5.466;2023-04-16T04:41:00;19.00;;;10.93;;
9420;SDS011;4749;51.398;5.466;2023-04-16T04:43:27;19.25;;;10.75;;
9420;SDS011;4749;51.398;5.466;2023-04-16T04:45:54;15.97;;;9.83;;
9420;SDS011;4749;51.398;5.466;2023-04-16T04:48:21;16.23;;;9.02;;
9420;SDS011;4749;51.398;5.466;2023-04-16T04:50:51;16.25;;;10.57;;
9420;SDS011;4749;51.398;5.466;2023-04-16T04:53:19;15.77;;;9.73;;
9420;SDS011;4749;51.398;5.466;2023-04-16T04:55:46;20.33;;;10.33;;
9420;SDS011;4749;51.398;5.466;2023-04-16T04:58:19;21.17;;;11.03;;
9420;SDS011;4749;51.398;5.466;2023-04-16T05:00:46;24.37;;;10.40;;
9420;SDS011;4749;51.398;5.466;2023-04-16T05:03:17;16.80;;;10.33;;
9420;SDS011;4749;51.398;5.466;2023-04-16T05:05:46;18.13;;;10.27;;
9420;SDS011;4749;51.398;5.466;2023-04-16T05:08:14;16.97;;;10.53;;
9420;SDS011;4749;51.398;5.466;2023-04-16T05:10:41;20.53;;;10.07;;
9420;SDS011;4749;51.398;5.466;2023-04-16T05:13:08;19.90;;;10.30;;
9420;SDS011;4749;51.398;5.466;2023-04-16T05:15:35;22.93;;;11.40;;
9420;SDS011;4749;51.398;5.466;2023-04-16T05:18:03;18.93;;;10.13;;
9420;SDS011;4749;51.398;5.466;2023-04-16T05:20:30;19.10;;;10.13;;
9420;SDS011;4749;51.398;5.466;2023-04-16T05:22:57;14.77;;;10.33;;
9420;SDS011;4749;51.398;5.466;2023-04-16T05:25:24;17.50;;;10.68;;
9420;SDS011;4749;51.398;5.466;2023-04-16T05:27:51;24.02;;;11.13;;
9420;SDS011;4749;51.398;5.466;2023-04-16T05:30:18;19.17;;;9.80;;
9420;SDS011;4749;51.398;5.466;2023-04-16T05:32:45;19.02;;;11.13;;
9420;SDS011;4749;51.398;5.466;2023-04-16T05:35:13;18.43;;;10.57;;
9420;SDS011;4749;51.398;5.466;2023-04-16T05:37:42;20.13;;;10.30;;
9420;SDS011;4749;51.398;5.466;2023-04-16T05:40:11;19.17;;;9.40;;
9420;SDS011;4749;51.398;5.466;2023-04-16T05:42:39;22.53;;;10.10;;
9420;SDS011;4749;51.398;5.466;2023-04-16T05:45:06;20.20;;;10.00;;
9420;SDS011;4749;51.398;5.466;2023-04-16T05:47:34;18.42;;;9.60;;
9420;SDS011;4749;51.398;5.466;2023-04-16T05:50:01;20.30;;;9.63;;
9420;SDS011;4749;51.398;5.466;2023-04-16T05:52:28;20.67;;;10.30;;
9420;SDS011;4749;51.398;5.466;2023-04-16T05:54:55;21.37;;;10.37;;
9420;SDS011;4749;51.398;5.466;2023-04-16T05:57:27;17.13;;;9.20;;
9420;SDS011;4749;51.398;5.466;2023-04-16T05:59:55;18.83;;;9.60;;
9420;SDS011;4749;51.398;5.466;2023-04-16T06:02:23;18.07;;;9.70;;
9420;SDS011;4749;51.398;5.466;2023-04-16T06:04:51;19.35;;;10.38;;
9420;SDS011;4749;51.398;5.466;2023-04-16T06:07:18;18.90;;;8.90;;
9420;SDS011;4749;51.398;5.466;2023-04-16T06:09:45;16.92;;;9.40;;
9420;SDS011;4749;51.398;5.466;2023-04-16T06:12:12;19.73;;;10.20;;
9420;SDS011;4749;51.398;5.466;2023-04-16T06:14:39;22.83;;;9.38;;
9420;SDS011;4749;51.398;5.466;2023-04-16T06:17:06;17.48;;;8.75;;
9420;SDS011;4749;51.398;5.466;2023-04-16T06:19:34;16.05;;;9.90;;
9420;SDS011;4749;51.398;5.466;2023-04-16T06:22:01;17.42;;;8.60;;
9420;SDS011;4749;51.398;5.466;2023-04-16T06:24:31;12.98;;;8.38;;
9420;SDS011;4749;51.398;5.466;2023-04-16T06:26:58;15.97;;;8.43;;
9420;SDS011;4749;51.398;5.466;2023-04-16T06:29:26;16.77;;;8.97;;
9420;SDS011;4749;51.398;5.466;2023-04-16T06:32:05;19.95;;;9.02;;
9420;SDS011;4749;51.398;5.466;2023-04-16T06:34:33;16.80;;;8.97;;
9420;SDS011;4749;51.398;5.466;2023-04-16T06:37:00;18.45;;;9.27;;
9420;SDS011;4749;51.398;5.466;2023-04-16T06:39:27;21.02;;;8.85;;
9420;SDS011;4749;51.398;5.466;2023-04-16T06:41:54;22.65;;;9.70;;
9420;SDS011;4749;51.398;5.466;2023-04-16T06:44:22;17.17;;;8.35;;
9420;SDS011;4749;51.398;5.466;2023-04-16T06:46:49;19.25;;;9.25;;
9420;SDS011;4749;51.398;5.466;2023-04-16T06:49:17;17.20;;;9.13;;
9420;SDS011;4749;51.398;5.466;2023-04-16T06:51:44;20.27;;;9.13;;
9420;SDS011;4749;51.398;5.466;2023-04-16T06:54:11;13.50;;;8.52;;
9420;SDS011;4749;51.398;5.466;2023-04-16T06:56:38;15.35;;;8.77;;
9420;SDS011;4749;51.398;5.466;2023-04-16T06:59:06;18.50;;;9.27;;
9420;SDS011;4749;51.398;5.466;2023-04-16T07:01:33;19.92;;;9.75;;
9420;SDS011;4749;51.398;5.466;2023-04-16T07:04:01;16.58;;;8.45;;
9420;SDS011;4749;51.398;5.466;2023-04-16T07:06:29;15.85;;;9.25;;
9420;SDS011;4749;51.398;5.466;2023-04-16T07:08:57;19.05;;;9.13;;
9420;SDS011;4749;51.398;5.466;2023-04-16T07:11:24;16.83;;;9.32;;
9420;SDS011;4749;51.398;5.466;2023-04-16T07:13:51;16.08;;;9.27;;
9420;SDS011;4749;51.398;5.466;2023-04-16T07:16:19;19.13;;;9.05;;
9420;SDS011;4749;51.398;5.466;2023-04-16T07:18:46;13.88;;;7.72;;
9420;SDS011;4749;51.398;5.466;2023-04-16T07:21:13;19.08;;;9.85;;
9420;SDS011;4749;51.398;5.466;2023-04-16T07:23:41;18.40;;;8.55;;
9420;SDS011;4749;51.398;5.466;2023-04-16T07:26:08;14.60;;;8.88;;
9420;SDS011;4749;51.398;5.466;2023-04-16T07:28:36;17.05;;;8.43;;
9420;SDS011;4749;51.398;5.466;2023-04-16T07:31:04;16.42;;;7.72;;
9420;SDS011;4749;51.398;5.466;2023-04-16T07:33:31;16.05;;;8.40;;
9420;SDS011;4749;51.398;5.466;2023-04-16T07:35:59;15.68;;;8.82;;
9420;SDS011;4749;51.398;5.466;2023-04-16T07:38:26;17.08;;;8.45;;
9420;SDS011;4749;51.398;5.466;2023-04-16T07:40:53;15.57;;;8.93;;
9420;SDS011;4749;51.398;5.466;2023-04-16T07:43:22;16.88;;;8.23;;
9420;SDS011;4749;51.398;5.466;2023-04-16T07:45:49;15.32;;;8.43;;
9420;SDS011;4749;51.398;5.466;2023-04-16T07:48:16;16.23;;;8.82;;
9420;SDS011;4749;51.398;5.466;2023-04-16T07:50:43;20.58;;;8.75;;
9420;SDS011;4749;51.398;5.466;2023-04-16T07:53:10;18.35;;;9.05;;
9420;SDS011;4749;51.398;5.466;2023-04-16T07:55:37;21.85;;;8.90;;
9420;SDS011;4749;51.398;5.466;2023-04-16T07:58:04;19.10;;;8.98;;
9420;SDS011;4749;51.398;5.466;2023-04-16T08:00:33;20.88;;;8.95;;
9420;SDS011;4749;51.398;5.466;2023-04-16T08:03:00;16.45;;;9.32;;
9420;SDS011;4749;51.398;5.466;2023-04-16T08:05:27;19.73;;;9.82;;
9420;SDS011;4749;51.398;5.466;2023-04-16T08:07:55;21.02;;;9.55;;
9420;SDS011;4749;51.398;5.466;2023-04-16T08:10:22;19.17;;;10.02;;
9420;SDS011;4749;51.398;5.466;2023-04-16T08:12:49;17.58;;;9.48;;
9420;SDS011;4749;51.398;5.466;2023-04-16T08:15:16;17.90;;;10.20;;
9420;SDS011;4749;51.398;5.466;2023-04-16T08:17:43;21.77;;;9.98;;
9420;SDS011;4749;51.398;5.466;2023-04-16T08:20:11;22.50;;;10.32;;
9420;SDS011;4749;51.398;5.466;2023-04-16T08:22:43;26.02;;;10.23;;
9420;SDS011;4749;51.398;5.466;2023-04-16T08:25:11;20.38;;;10.40;;
9420;SDS011;4749;51.398;5.466;2023-04-16T08:27:39;19.98;;;10.00;;
9420;SDS011;4749;51.398;5.466;2023-04-16T08:30:06;21.80;;;10.63;;
9420;SDS011;4749;51.398;5.466;2023-04-16T08:32:34;21.02;;;9.73;;
9420;SDS011;4749;51.398;5.466;2023-04-16T08:35:01;23.25;;;10.70;;
9420;SDS011;4749;51.398;5.466;2023-04-16T08:37:28;19.10;;;10.43;;
9420;SDS011;4749;51.398;5.466;2023-04-16T08:39:55;30.45;;;11.43;;
9420;SDS011;4749;51.398;5.466;2023-04-16T08:42:34;21.27;;;11.18;;
9420;SDS011;4749;51.398;5.466;2023-04-16T08:45:13;22.75;;;11.18;;
9420;SDS011;4749;51.398;5.466;2023-04-16T08:47:50;19.13;;;10.60;;
9420;SDS011;4749;51.398;5.466;2023-04-16T08:50:22;20.25;;;11.18;;
9420;SDS011;4749;51.398;5.466;2023-04-16T08:52:51;27.05;;;12.02;;
9420;SDS011;4749;51.398;5.466;2023-04-16T08:55:30;22.98;;;10.85;;
9420;SDS011;4749;51.398;5.466;2023-04-16T08:58:29;26.50;;;11.98;;
9420;SDS011;4749;51.398;5.466;2023-04-16T09:01:03;24.42;;;12.15;;
9420;SDS011;4749;51.398;5.466;2023-04-16T09:03:31;22.15;;;12.52;;
9420;SDS011;4749;51.398;5.466;2023-04-16T09:06:02;28.73;;;12.23;;
9420;SDS011;4749;51.398;5.466;2023-04-16T09:08:31;28.90;;;13.05;;
9420;SDS011;4749;51.398;5.466;2023-04-16T09:11:01;24.10;;;11.52;;
9420;SDS011;4749;51.398;5.466;2023-04-16T09:13:30;23.80;;;12.52;;
9420;SDS011;4749;51.398;5.466;2023-04-16T09:15:57;29.40;;;12.70;;
9420;SDS011;4749;51.398;5.466;2023-04-16T09:18:25;24.17;;;12.35;;
9420;SDS011;4749;51.398;5.466;2023-04-16T09:20:53;26.05;;;11.35;;
9420;SDS011;4749;51.398;5.466;2023-04-16T09:23:21;26.67;;;13.10;;
9420;SDS011;4749;51.398;5.466;2023-04-16T09:25:50;24.05;;;11.93;;
9420;SDS011;4749;51.398;5.466;2023-04-16T09:31:17;22.50;;;11.73;;
9420;SDS011;4749;51.398;5.466;2023-04-16T09:36:42;28.35;;;13.07;;
9420;SDS011;4749;51.398;5.466;2023-04-16T09:39:10;24.05;;;12.90;;
9420;SDS011;4749;51.398;5.466;2023-04-16T09:41:45;23.52;;;11.93;;
9420;SDS011;4749;51.398;5.466;2023-04-16T09:44:13;24.10;;;12.18;;
9420;SDS011;4749;51.398;5.466;2023-04-16T09:46:41;28.02;;;12.68;;
9420;SDS011;4749;51.398;5.466;2023-04-16T09:49:08;25.52;;;12.32;;
9420;SDS011;4749;51.398;5.466;2023-04-16T09:51:37;25.55;;;12.60;;
9420;SDS011;4749;51.398;5.466;2023-04-16T09:54:08;25.58;;;13.38;;
9420;SDS011;4749;51.398;5.466;2023-04-16T09:56:45;29.08;;;13.13;;
9420;SDS011;4749;51.398;5.466;2023-04-16T09:59:22;25.45;;;13.13;;
9420;SDS011;4749;51.398;5.466;2023-04-16T10:01:50;24.95;;;11.95;;
9420;SDS011;4749;51.398;5.466;2023-04-16T10:07:16;20.48;;;11.55;;
9420;SDS011;4749;51.398;5.466;2023-04-16T10:09:45;28.95;;;13.55;;
9420;SDS011;4749;51.398;5.466;2023-04-16T10:12:17;26.25;;;12.75;;
9420;SDS011;4749;51.398;5.466;2023-04-16T10:14:46;23.70;;;12.60;;
9420;SDS011;4749;51.398;5.466;2023-04-16T10:17:15;25.13;;;13.00;;
9420;SDS011;4749;51.398;5.466;2023-04-16T10:19:46;29.13;;;13.60;;
9420;SDS011;4749;51.398;5.466;2023-04-16T10:22:14;28.25;;;13.23;;
9420;SDS011;4749;51.398;5.466;2023-04-16T10:24:41;24.50;;;12.50;;
9420;SDS011;4749;51.398;5.466;2023-04-16T10:27:09;31.15;;;13.20;;
9420;SDS011;4749;51.398;5.466;2023-04-16T10:29:36;23.10;;;12.88;;
9420;SDS011;4749;51.398;5.466;2023-04-16T10:32:04;28.80;;;12.70;;
9420;SDS011;4749;51.398;5.466;2023-04-16T10:34:32;26.02;;;12.50;;
9420;SDS011;4749;51.398;5.466;2023-04-16T10:37:01;29.20;;;13.02;;
9420;SDS011;4749;51.398;5.466;2023-04-16T10:39:28;21.35;;;12.23;;
9420;SDS011;4749;51.398;5.466;2023-04-16T10:42:06;27.58;;;13.27;;
9420;SDS011;4749;51.398;5.466;2023-04-16T10:44:38;31.25;;;12.65;;
9420;SDS011;4749;51.398;5.466;2023-04-16T10:47:10;24.38;;;12.18;;
9420;SDS011;4749;51.398;5.466;2023-04-16T10:49:39;25.83;;;12.38;;
9420;SDS011;4749;51.398;5.466;2023-04-16T10:54:38;23.55;;;12.68;;
9420;SDS011;4749;51.398;5.466;2023-04-16T10:57:10;23.73;;;11.93;;
9420;SDS011;4749;51.398;5.466;2023-04-16T10:59:43;27.05;;;13.27;;
9420;SDS011;4749;51.398;5.466;2023-04-16T11:02:14;22.98;;;12.57;;
9420;SDS011;4749;51.398;5.466;2023-04-16T11:04:44;24.38;;;13.60;;
9420;SDS011;4749;51.398;5.466;2023-04-16T11:07:16;21.80;;;11.93;;
9420;SDS011;4749;51.398;5.466;2023-04-16T11:09:59;25.15;;;12.20;;
9420;SDS011;4749;51.398;5.466;2023-04-16T11:12:34;25.33;;;12.98;;
9420;SDS011;4749;51.398;5.466;2023-04-16T11:15:07;24.80;;;12.63;;
9420;SDS011;4749;51.398;5.466;2023-04-16T11:17:37;28.30;;;12.80;;
9420;SDS011;4749;51.398;5.466;2023-04-16T11:20:20;20.92;;;12.30;;
9420;SDS011;4749;51.398;5.466;2023-04-16T11:22:53;22.52;;;12.80;;
9420;SDS011;4749;51.398;5.466;2023-04-16T11:25:23;25.60;;;12.23;;
9420;SDS011;4749;51.398;5.466;2023-04-16T11:27:53;22.13;;;11.52;;
9420;SDS011;4749;51.398;5.466;2023-04-16T11:30:27;24.02;;;12.70;;
9420;SDS011;4749;51.398;5.466;2023-04-16T11:33:02;22.15;;;13.23;;
9420;SDS011;4749;51.398;5.466;2023-04-16T11:35:31;26.83;;;13.40;;
9420;SDS011;4749;51.398;5.466;2023-04-16T11:37:58;20.92;;;13.02;;
9420;SDS011;4749;51.398;5.466;2023-04-16T11:40:28;23.08;;;12.57;;
9420;SDS011;4749;51.398;5.466;2023-04-16T11:43:03;23.73;;;12.38;;
9420;SDS011;4749;51.398;5.466;2023-04-16T11:45:54;25.80;;;12.07;;
9420;SDS011;4749;51.398;5.466;2023-04-16T11:49:01;20.13;;;12.02;;
9420;SDS011;4749;51.398;5.466;2023-04-16T11:51:21;25.65;;;13.02;;
9420;SDS011;4749;51.398;5.466;2023-04-16T11:53:49;24.13;;;14.25;;
9420;SDS011;4749;51.398;5.466;2023-04-16T11:56:28;21.25;;;13.13;;
9420;SDS011;4749;51.398;5.466;2023-04-16T11:59:10;22.67;;;12.63;;
9420;SDS011;4749;51.398;5.466;2023-04-16T12:01:40;23.55;;;11.95;;
9420;SDS011;4749;51.398;5.466;2023-04-16T12:04:15;25.45;;;13.93;;
9420;SDS011;4749;51.398;5.466;2023-04-16T12:09:32;20.27;;;12.77;;
9420;SDS011;4749;51.398;5.466;2023-04-16T12:12:05;26.40;;;12.63;;
9420;SDS011;4749;51.398;5.466;2023-04-16T12:14:50;20.35;;;12.10;;
9420;SDS011;4749;51.398;5.466;2023-04-16T12:17:19;26.40;;;13.25;;
9420;SDS011;4749;51.398;5.466;2023-04-16T12:19:47;25.63;;;13.30;;
9420;SDS011;4749;51.398;5.466;2023-04-16T12:22:32;21.75;;;12.55;;
9420;SDS011;4749;51.398;5.466;2023-04-16T12:25:06;20.42;;;13.50;;
9420;SDS011;4749;51.398;5.466;2023-04-16T12:30:19;20.70;;;12.60;;
9420;SDS011;4749;51.398;5.466;2023-04-16T12:32:50;19.50;;;12.00;;
9420;SDS011;4749;51.398;5.466;2023-04-16T12:35:40;21.63;;;12.13;;
9420;SDS011;4749;51.398;5.466;2023-04-16T12:38:08;22.35;;;12.88;;
9420;SDS011;4749;51.398;5.466;2023-04-16T12:40:37;20.73;;;12.13;;
9420;SDS011;4749;51.398;5.466;2023-04-16T12:43:04;18.73;;;12.10;;
9420;SDS011;4749;51.398;5.466;2023-04-16T12:45:31;20.83;;;11.45;;
9420;SDS011;4749;51.398;5.466;2023-04-16T12:47:58;18.30;;;10.88;;
9420;SDS011;4749;51.398;5.466;2023-04-16T12:50:25;19.27;;;11.57;;
9420;SDS011;4749;51.398;5.466;2023-04-16T12:52:54;17.58;;;11.40;;
9420;SDS011;4749;51.398;5.466;2023-04-16T12:55:22;16.02;;;11.13;;
9420;SDS011;4749;51.398;5.466;2023-04-16T12:57:50;16.55;;;11.10;;
9420;SDS011;4749;51.398;5.466;2023-04-16T13:00:20;19.52;;;10.60;;
9420;SDS011;4749;51.398;5.466;2023-04-16T13:02:48;20.00;;;10.25;;
9420;SDS011;4749;51.398;5.466;2023-04-16T13:05:15;16.92;;;10.52;;
9420;SDS011;4749;51.398;5.466;2023-04-16T13:07:44;20.17;;;10.85;;
9420;SDS011;4749;51.398;5.466;2023-04-16T13:10:11;18.38;;;10.35;;
9420;SDS011;4749;51.398;5.466;2023-04-16T13:12:39;16.73;;;10.52;;
9420;SDS011;4749;51.398;5.466;2023-04-16T13:15:06;15.02;;;10.38;;
9420;SDS011;4749;51.398;5.466;2023-04-16T13:17:34;15.52;;;9.70;;
9420;SDS011;4749;51.398;5.466;2023-04-16T13:20:01;19.50;;;10.43;;
9420;SDS011;4749;51.398;5.466;2023-04-16T13:22:28;16.67;;;10.55;;
9420;SDS011;4749;51.398;5.466;2023-04-16T13:24:56;12.73;;;9.77;;
9420;SDS011;4749;51.398;5.466;2023-04-16T13:27:23;14.95;;;9.85;;
9420;SDS011;4749;51.398;5.466;2023-04-16T13:29:50;14.95;;;9.25;;
9420;SDS011;4749;51.398;5.466;2023-04-16T13:32:17;15.88;;;9.57;;
9420;SDS011;4749;51.398;5.466;2023-04-16T13:34:44;14.20;;;8.80;;
9420;SDS011;4749;51.398;5.466;2023-04-16T13:37:12;11.80;;;9.10;;
9420;SDS011;4749;51.398;5.466;2023-04-16T13:39:39;15.10;;;9.25;;
9420;SDS011;4749;51.398;5.466;2023-04-16T13:42:06;13.13;;;9.27;;
9420;SDS011;4749;51.398;5.466;2023-04-16T13:44:33;15.25;;;10.60;;
9420;SDS011;4749;51.398;5.466;2023-04-16T13:47:00;15.05;;;10.00;;
9420;SDS011;4749;51.398;5.466;2023-04-16T13:49:27;14.63;;;9.95;;
9420;SDS011;4749;51.398;5.466;2023-04-16T13:51:54;15.02;;;9.23;;
9420;SDS011;4749;51.398;5.466;2023-04-16T13:54:21;14.68;;;9.43;;
9420;SDS011;4749;51.398;5.466;2023-04-16T13:56:49;14.38;;;9.43;;
9420;SDS011;4749;51.398;5.466;2023-04-16T13:59:16;13.07;;;9.68;;
9420;SDS011;4749;51.398;5.466;2023-04-16T14:01:43;15.50;;;9.90;;
9420;SDS011;4749;51.398;5.466;2023-04-16T14:04:11;12.63;;;8.50;;
9420;SDS011;4749;51.398;5.466;2023-04-16T14:06:38;15.15;;;9.23;;
9420;SDS011;4749;51.398;5.466;2023-04-16T14:09:05;16.10;;;9.10;;
9420;SDS011;4749;51.398;5.466;2023-04-16T14:11:32;13.82;;;9.32;;
9420;SDS011;4749;51.398;5.466;2023-04-16T14:13:59;12.95;;;8.88;;
9420;SDS011;4749;51.398;5.466;2023-04-16T14:16:26;14.18;;;8.85;;
9420;SDS011;4749;51.398;5.466;2023-04-16T14:18:54;15.02;;;9.43;;
9420;SDS011;4749;51.398;5.466;2023-04-16T14:21:21;13.38;;;8.07;;
9420;SDS011;4749;51.398;5.466;2023-04-16T14:23:48;10.38;;;8.18;;
9420;SDS011;4749;51.398;5.466;2023-04-16T14:26:16;14.82;;;8.95;;
9420;SDS011;4749;51.398;5.466;2023-04-16T14:28:43;12.50;;;7.97;;
9420;SDS011;4749;51.398;5.466;2023-04-16T14:31:10;13.80;;;9.25;;
9420;SDS011;4749;51.398;5.466;2023-04-16T14:33:37;13.30;;;8.45;;
9420;SDS011;4749;51.398;5.466;2023-04-16T14:36:04;13.95;;;8.77;;
9420;SDS011;4749;51.398;5.466;2023-04-16T14:38:32;14.82;;;9.20;;
9420;SDS011;4749;51.398;5.466;2023-04-16T14:40:59;10.63;;;8.30;;
9420;SDS011;4749;51.398;5.466;2023-04-16T14:43:26;13.95;;;9.00;;
9420;SDS011;4749;51.398;5.466;2023-04-16T14:45:53;12.32;;;8.75;;
9420;SDS011;4749;51.398;5.466;2023-04-16T14:48:22;14.15;;;8.95;;
9420;SDS011;4749;51.398;5.466;2023-04-16T14:50:49;11.65;;;8.73;;
9420;SDS011;4749;51.398;5.466;2023-04-16T14:53:16;14.15;;;8.75;;
9420;SDS011;4749;51.398;5.466;2023-04-16T14:55:44;11.80;;;8.40;;
9420;SDS011;4749;51.398;5.466;2023-04-16T14:58:11;13.93;;;9.13;;
9420;SDS011;4749;51.398;5.466;2023-04-16T15:00:38;14.75;;;8.80;;
9420;SDS011;4749;51.398;5.466;2023-04-16T15:03:05;12.05;;;9.27;;
9420;SDS011;4749;51.398;5.466;2023-04-16T15:05:33;15.20;;;9.30;;
9420;SDS011;4749;51.398;5.466;2023-04-16T15:08:01;15.20;;;10.35;;
9420;SDS011;4749;51.398;5.466;2023-04-16T15:10:29;12.20;;;9.10;;
9420;SDS011;4749;51.398;5.466;2023-04-16T15:12:56;13.05;;;9.02;;
9420;SDS011;4749;51.398;5.466;2023-04-16T15:15:23;12.90;;;9.77;;
9420;SDS011;4749;51.398;5.466;2023-04-16T15:17:50;14.32;;;9.75;;
9420;SDS011;4749;51.398;5.466;2023-04-16T15:20:17;13.75;;;9.27;;
9420;SDS011;4749;51.398;5.466;2023-04-16T15:22:44;15.02;;;9.07;;